Terminal Aerodrome Forecast
Issued by NWS Albuquerque, NM

Home | Current Version | Previous Version | Text Only | Print | Product List | Glossary On
Versions: 1 2 3 4 5 6 7 8 9 10 11 12 13
000
FTUS45 KABQ 300200 AAA
TAFABQ
TAF AMD
KABQ 300202Z 3002/3024 09022G33KT P6SM VCSH SCT040 OVC080
      TEMPO 3006/3010 5SM -RASN BR OVC035
     FM301000 10015G25KT 2SM -SNRA BR OVC025
     FM301700 08013KT 1SM -RASN BR OVC015
      TEMPO 3018/3022 1/4SM -RA FG OVC007=

USA.gov is the U.S. government's official web portal to all federal, state and local government web resources and services.